Arcadia, South Carolina
Current Conditions -  °F | °C
As of 1:35 AM on Wednesday 22 Oct 2014 (Local Time) from KSPA Reporting Station
Clear Clear  
Wind Chill: 13°   Ceiling: Unl
Heat Index: 13°   Visibility: 10mi
Dew Point:   Wind: 8mph
Humidity: 51%   Direction: 350°N
Pressure: 29.99"   Gusts: NA
Location:  34.96°N, 81.99°W
Report Text: KSPA 220535Z AUTO 35007KT 10SM CLR 13/03 A2999 RMK AO2
Loading
Personal Weather Stations






























Interactive Weather Map
Tropical Storm Tracking
New forecast layout! Learn more

10-Day Weather Forecast

Advertisements
Track Severe Weather on mobile